sensor_id;sensor_type;location;lat;lon;timestamp;temperature;humidity
18207;DHT22;9229;52.354;20.886;2022-11-09T00:03:46;8.00;99.90
18207;DHT22;9229;52.354;20.886;2022-11-09T00:08:50;7.90;99.90
18207;DHT22;9229;52.354;20.886;2022-11-09T00:13:52;7.90;99.90
18207;DHT22;9229;52.354;20.886;2022-11-09T00:18:54;7.90;99.90
18207;DHT22;9229;52.354;20.886;2022-11-09T00:23:57;7.80;99.90
18207;DHT22;9229;52.354;20.886;2022-11-09T00:28:59;7.80;99.90
18207;DHT22;9229;52.354;20.886;2022-11-09T00:34:02;7.80;99.90
18207;DHT22;9229;52.354;20.886;2022-11-09T00:39:07;7.80;99.90
18207;DHT22;9229;52.354;20.886;2022-11-09T00:44:09;7.80;99.90
18207;DHT22;9229;52.354;20.886;2022-11-09T00:49:11;7.80;99.90
18207;DHT22;9229;52.354;20.886;2022-11-09T00:54:14;7.80;99.90
18207;DHT22;9229;52.354;20.886;2022-11-09T00:59:17;7.90;99.90
18207;DHT22;9229;52.354;20.886;2022-11-09T01:04:19;7.90;99.90
18207;DHT22;9229;52.354;20.886;2022-11-09T01:09:22;8.00;99.90
18207;DHT22;9229;52.354;20.886;2022-11-09T01:14:24;8.00;99.90
18207;DHT22;9229;52.354;20.886;2022-11-09T01:19:26;8.00;99.90
18207;DHT22;9229;52.354;20.886;2022-11-09T01:24:29;8.00;99.90
18207;DHT22;9229;52.354;20.886;2022-11-09T01:29:31;8.00;99.90
18207;DHT22;9229;52.354;20.886;2022-11-09T01:34:33;8.00;99.90
18207;DHT22;9229;52.354;20.886;2022-11-09T01:39:37;8.00;99.90
18207;DHT22;9229;52.354;20.886;2022-11-09T01:44:39;8.00;99.90
18207;DHT22;9229;52.354;20.886;2022-11-09T01:49:44;8.00;99.90
18207;DHT22;9229;52.354;20.886;2022-11-09T01:54:52;8.00;99.90
18207;DHT22;9229;52.354;20.886;2022-11-09T01:59:59;7.90;99.90
18207;DHT22;9229;52.354;20.886;2022-11-09T02:05:16;7.90;99.90
18207;DHT22;9229;52.354;20.886;2022-11-09T02:10:28;7.90;99.90
18207;DHT22;9229;52.354;20.886;2022-11-09T02:15:34;7.90;99.90
18207;DHT22;9229;52.354;20.886;2022-11-09T02:20:48;7.80;99.90
18207;DHT22;9229;52.354;20.886;2022-11-09T02:25:53;7.80;99.90
18207;DHT22;9229;52.354;20.886;2022-11-09T02:30:57;7.70;99.90
18207;DHT22;9229;52.354;20.886;2022-11-09T02:36:01;7.60;99.90
18207;DHT22;9229;52.354;20.886;2022-11-09T02:41:03;7.60;99.90
18207;DHT22;9229;52.354;20.886;2022-11-09T02:46:05;7.60;99.90
18207;DHT22;9229;52.354;20.886;2022-11-09T02:51:09;7.50;99.90
18207;DHT22;9229;52.354;20.886;2022-11-09T02:56:11;7.50;99.90
18207;DHT22;9229;52.354;20.886;2022-11-09T03:01:13;7.40;99.90
18207;DHT22;9229;52.354;20.886;2022-11-09T03:06:16;7.40;99.90
18207;DHT22;9229;52.354;20.886;2022-11-09T03:11:19;7.40;99.90
18207;DHT22;9229;52.354;20.886;2022-11-09T03:16:21;7.30;99.90
18207;DHT22;9229;52.354;20.886;2022-11-09T03:21:24;7.30;99.90
18207;DHT22;9229;52.354;20.886;2022-11-09T03:26:27;7.30;99.90
18207;DHT22;9229;52.354;20.886;2022-11-09T03:31:30;7.40;99.90
18207;DHT22;9229;52.354;20.886;2022-11-09T03:36:38;7.30;99.90
18207;DHT22;9229;52.354;20.886;2022-11-09T03:41:39;7.30;99.90
18207;DHT22;9229;52.354;20.886;2022-11-09T03:46:42;7.20;99.90
18207;DHT22;9229;52.354;20.886;2022-11-09T03:51:45;7.30;99.90
18207;DHT22;9229;52.354;20.886;2022-11-09T03:56:47;7.30;99.90
18207;DHT22;9229;52.354;20.886;2022-11-09T04:01:49;7.30;99.90
18207;DHT22;9229;52.354;20.886;2022-11-09T04:06:52;7.30;99.90
18207;DHT22;9229;52.354;20.886;2022-11-09T04:11:54;7.20;99.90
18207;DHT22;9229;52.354;20.886;2022-11-09T04:16:56;7.20;99.90
18207;DHT22;9229;52.354;20.886;2022-11-09T04:22:00;7.20;99.90
18207;DHT22;9229;52.354;20.886;2022-11-09T04:27:02;7.20;99.90
18207;DHT22;9229;52.354;20.886;2022-11-09T04:32:04;7.10;99.90
18207;DHT22;9229;52.354;20.886;2022-11-09T04:37:07;7.10;99.90
18207;DHT22;9229;52.354;20.886;2022-11-09T04:42:09;7.10;99.90
18207;DHT22;9229;52.354;20.886;2022-11-09T04:47:11;7.00;99.90
18207;DHT22;9229;52.354;20.886;2022-11-09T04:52:15;7.00;99.90
18207;DHT22;9229;52.354;20.886;2022-11-09T04:57:16;7.00;99.90
18207;DHT22;9229;52.354;20.886;2022-11-09T05:02:18;7.00;99.90
18207;DHT22;9229;52.354;20.886;2022-11-09T05:07:21;7.00;99.90
18207;DHT22;9229;52.354;20.886;2022-11-09T05:12:23;7.00;99.90
18207;DHT22;9229;52.354;20.886;2022-11-09T05:17:25;7.00;99.90
18207;DHT22;9229;52.354;20.886;2022-11-09T05:22:28;7.00;99.90
18207;DHT22;9229;52.354;20.886;2022-11-09T05:27:48;7.00;99.90
18207;DHT22;9229;52.354;20.886;2022-11-09T05:32:50;6.90;99.90
18207;DHT22;9229;52.354;20.886;2022-11-09T05:37:53;6.90;99.90
18207;DHT22;9229;52.354;20.886;2022-11-09T05:42:55;6.90;99.90
18207;DHT22;9229;52.354;20.886;2022-11-09T05:47:57;6.90;99.90
18207;DHT22;9229;52.354;20.886;2022-11-09T05:53:01;7.00;99.90
18207;DHT22;9229;52.354;20.886;2022-11-09T05:58:03;6.90;99.90
18207;DHT22;9229;52.354;20.886;2022-11-09T06:03:06;6.90;99.90
18207;DHT22;9229;52.354;20.886;2022-11-09T06:08:11;7.00;99.90
18207;DHT22;9229;52.354;20.886;2022-11-09T06:13:13;7.00;99.90
18207;DHT22;9229;52.354;20.886;2022-11-09T06:18:15;7.00;99.90
18207;DHT22;9229;52.354;20.886;2022-11-09T06:23:19;7.10;99.90
18207;DHT22;9229;52.354;20.886;2022-11-09T06:28:25;7.10;99.90
18207;DHT22;9229;52.354;20.886;2022-11-09T06:33:29;7.20;99.90
18207;DHT22;9229;52.354;20.886;2022-11-09T06:38:33;7.20;99.90
18207;DHT22;9229;52.354;20.886;2022-11-09T06:43:35;7.30;99.90
18207;DHT22;9229;52.354;20.886;2022-11-09T06:48:37;7.40;99.90
18207;DHT22;9229;52.354;20.886;2022-11-09T06:53:52;7.50;99.90
18207;DHT22;9229;52.354;20.886;2022-11-09T06:59:01;7.70;99.90
18207;DHT22;9229;52.354;20.886;2022-11-09T07:04:03;7.80;99.90
18207;DHT22;9229;52.354;20.886;2022-11-09T07:09:06;7.90;99.90
18207;DHT22;9229;52.354;20.886;2022-11-09T07:14:08;8.00;99.90
18207;DHT22;9229;52.354;20.886;2022-11-09T07:19:10;8.10;99.90
18207;DHT22;9229;52.354;20.886;2022-11-09T07:24:13;8.20;99.90
18207;DHT22;9229;52.354;20.886;2022-11-09T07:29:15;8.30;99.90
18207;DHT22;9229;52.354;20.886;2022-11-09T07:34:18;8.30;99.90
18207;DHT22;9229;52.354;20.886;2022-11-09T07:39:21;8.50;99.90
18207;DHT22;9229;52.354;20.886;2022-11-09T07:44:23;8.70;99.90
18207;DHT22;9229;52.354;20.886;2022-11-09T07:49:25;8.80;99.90
18207;DHT22;9229;52.354;20.886;2022-11-09T07:54:28;8.90;99.90
18207;DHT22;9229;52.354;20.886;2022-11-09T07:59:30;8.90;99.90
18207;DHT22;9229;52.354;20.886;2022-11-09T08:04:32;8.90;99.90
18207;DHT22;9229;52.354;20.886;2022-11-09T08:09:35;9.00;99.90
18207;DHT22;9229;52.354;20.886;2022-11-09T08:14:37;9.10;99.90
18207;DHT22;9229;52.354;20.886;2022-11-09T08:19:39;9.20;99.90
18207;DHT22;9229;52.354;20.886;2022-11-09T08:24:43;9.50;99.90
18207;DHT22;9229;52.354;20.886;2022-11-09T08:29:45;9.80;99.90
18207;DHT22;9229;52.354;20.886;2022-11-09T08:34:48;10.20;99.90
18207;DHT22;9229;52.354;20.886;2022-11-09T08:39:51;10.50;99.90
18207;DHT22;9229;52.354;20.886;2022-11-09T08:44:54;10.90;99.90
18207;DHT22;9229;52.354;20.886;2022-11-09T08:49:56;11.20;99.90
18207;DHT22;9229;52.354;20.886;2022-11-09T08:54:59;11.30;99.90
18207;DHT22;9229;52.354;20.886;2022-11-09T09:00:02;11.20;99.90
18207;DHT22;9229;52.354;20.886;2022-11-09T09:05:04;11.20;99.90
18207;DHT22;9229;52.354;20.886;2022-11-09T09:10:09;11.10;99.90
18207;DHT22;9229;52.354;20.886;2022-11-09T09:15:11;11.10;99.90
18207;DHT22;9229;52.354;20.886;2022-11-09T09:20:13;11.20;99.90
18207;DHT22;9229;52.354;20.886;2022-11-09T09:25:17;11.50;99.90
18207;DHT22;9229;52.354;20.886;2022-11-09T09:30:19;11.80;99.90
18207;DHT22;9229;52.354;20.886;2022-11-09T09:35:22;12.00;99.90
18207;DHT22;9229;52.354;20.886;2022-11-09T09:40:30;12.50;99.90
18207;DHT22;9229;52.354;20.886;2022-11-09T09:45:34;12.90;99.90
18207;DHT22;9229;52.354;20.886;2022-11-09T09:50:45;13.00;99.90
18207;DHT22;9229;52.354;20.886;2022-11-09T09:55:53;13.00;99.90
18207;DHT22;9229;52.354;20.886;2022-11-09T10:00:59;13.00;99.90
18207;DHT22;9229;52.354;20.886;2022-11-09T10:06:13;13.10;99.90
18207;DHT22;9229;52.354;20.886;2022-11-09T10:11:29;13.20;99.90
18207;DHT22;9229;52.354;20.886;2022-11-09T10:16:40;13.20;99.90
18207;DHT22;9229;52.354;20.886;2022-11-09T10:21:52;13.20;99.90
18207;DHT22;9229;52.354;20.886;2022-11-09T10:27:01;13.30;99.90
18207;DHT22;9229;52.354;20.886;2022-11-09T10:32:12;13.30;99.90
18207;DHT22;9229;52.354;20.886;2022-11-09T10:37:17;13.40;99.90
18207;DHT22;9229;52.354;20.886;2022-11-09T10:42:23;13.60;99.90
18207;DHT22;9229;52.354;20.886;2022-11-09T10:47:48;13.70;99.90
18207;DHT22;9229;52.354;20.886;2022-11-09T10:53:13;13.80;99.90
18207;DHT22;9229;52.354;20.886;2022-11-09T10:58:38;13.80;99.90
18207;DHT22;9229;52.354;20.886;2022-11-09T11:04:18;14.00;99.90
18207;DHT22;9229;52.354;20.886;2022-11-09T11:09:45;14.00;99.90
18207;DHT22;9229;52.354;20.886;2022-11-09T11:15:21;14.00;99.90
18207;DHT22;9229;52.354;20.886;2022-11-09T11:20:44;14.00;99.90
18207;DHT22;9229;52.354;20.886;2022-11-09T11:26:31;14.10;99.90
18207;DHT22;9229;52.354;20.886;2022-11-09T11:31:55;14.10;99.90
18207;DHT22;9229;52.354;20.886;2022-11-09T11:37:27;14.30;99.90
18207;DHT22;9229;52.354;20.886;2022-11-09T11:43:14;14.30;99.90
18207;DHT22;9229;52.354;20.886;2022-11-09T11:49:07;14.10;99.90
18207;DHT22;9229;52.354;20.886;2022-11-09T11:54:37;13.90;99.90
18207;DHT22;9229;52.354;20.886;2022-11-09T12:00:09;13.80;99.90
18207;DHT22;9229;52.354;20.886;2022-11-09T12:05:53;14.00;99.90
18207;DHT22;9229;52.354;20.886;2022-11-09T12:11:20;14.10;99.90
18207;DHT22;9229;52.354;20.886;2022-11-09T12:16:50;14.10;99.90
18207;DHT22;9229;52.354;20.886;2022-11-09T12:22:22;14.20;99.90
18207;DHT22;9229;52.354;20.886;2022-11-09T12:27:55;14.30;99.90
18207;DHT22;9229;52.354;20.886;2022-11-09T12:33:22;14.30;99.90
18207;DHT22;9229;52.354;20.886;2022-11-09T12:38:57;14.40;99.90
18207;DHT22;9229;52.354;20.886;2022-11-09T12:44:23;14.30;99.90
18207;DHT22;9229;52.354;20.886;2022-11-09T12:49:45;14.10;99.90
18207;DHT22;9229;52.354;20.886;2022-11-09T12:55:12;14.00;99.90
18207;DHT22;9229;52.354;20.886;2022-11-09T13:00:48;14.00;99.90
18207;DHT22;9229;52.354;20.886;2022-11-09T13:06:15;13.90;99.90
18207;DHT22;9229;52.354;20.886;2022-11-09T13:11:39;13.90;99.90
18207;DHT22;9229;52.354;20.886;2022-11-09T13:17:01;13.80;99.90
18207;DHT22;9229;52.354;20.886;2022-11-09T13:22:58;13.70;99.90
18207;DHT22;9229;52.354;20.886;2022-11-09T13:34:41;13.50;99.90
18207;DHT22;9229;52.354;20.886;2022-11-09T13:40:32;13.40;99.90
18207;DHT22;9229;52.354;20.886;2022-11-09T13:45:45;13.30;99.90
18207;DHT22;9229;52.354;20.886;2022-11-09T13:51:10;13.20;99.90
18207;DHT22;9229;52.354;20.886;2022-11-09T13:56:33;13.10;99.90
18207;DHT22;9229;52.354;20.886;2022-11-09T14:01:57;13.00;99.90
18207;DHT22;9229;52.354;20.886;2022-11-09T14:07:23;13.00;99.90
18207;DHT22;9229;52.354;20.886;2022-11-09T14:12:49;13.00;99.90
18207;DHT22;9229;52.354;20.886;2022-11-09T14:18:22;12.90;99.90
18207;DHT22;9229;52.354;20.886;2022-11-09T14:23:48;12.80;99.90
18207;DHT22;9229;52.354;20.886;2022-11-09T14:29:20;12.70;99.90
18207;DHT22;9229;52.354;20.886;2022-11-09T14:34:41;12.60;99.90
18207;DHT22;9229;52.354;20.886;2022-11-09T14:40:13;12.50;99.90
18207;DHT22;9229;52.354;20.886;2022-11-09T14:45:34;12.40;99.90
18207;DHT22;9229;52.354;20.886;2022-11-09T14:50:57;12.40;99.90
18207;DHT22;9229;52.354;20.886;2022-11-09T14:56:21;12.20;99.90
18207;DHT22;9229;52.354;20.886;2022-11-09T15:01:55;12.20;99.90
18207;DHT22;9229;52.354;20.886;2022-11-09T15:07:18;12.10;99.90
18207;DHT22;9229;52.354;20.886;2022-11-09T15:12:46;12.00;99.90
18207;DHT22;9229;52.354;20.886;2022-11-09T15:18:16;11.90;99.90
18207;DHT22;9229;52.354;20.886;2022-11-09T15:23:38;11.80;99.90
18207;DHT22;9229;52.354;20.886;2022-11-09T15:29:24;11.70;99.90
18207;DHT22;9229;52.354;20.886;2022-11-09T15:34:43;11.60;99.90
18207;DHT22;9229;52.354;20.886;2022-11-09T15:40:15;11.50;99.90
18207;DHT22;9229;52.354;20.886;2022-11-09T15:45:38;11.40;99.90
18207;DHT22;9229;52.354;20.886;2022-11-09T15:50:59;11.40;99.90
18207;DHT22;9229;52.354;20.886;2022-11-09T15:56:22;11.30;99.90
18207;DHT22;9229;52.354;20.886;2022-11-09T16:01:45;11.30;99.90
18207;DHT22;9229;52.354;20.886;2022-11-09T16:07:06;11.20;99.90
18207;DHT22;9229;52.354;20.886;2022-11-09T16:12:28;11.10;99.90
18207;DHT22;9229;52.354;20.886;2022-11-09T16:17:50;11.10;99.90
18207;DHT22;9229;52.354;20.886;2022-11-09T16:23:11;11.00;99.90
18207;DHT22;9229;52.354;20.886;2022-11-09T16:28:31;11.00;99.90
18207;DHT22;9229;52.354;20.886;2022-11-09T16:33:53;10.90;99.90
18207;DHT22;9229;52.354;20.886;2022-11-09T16:39:15;10.90;99.90
18207;DHT22;9229;52.354;20.886;2022-11-09T16:44:39;10.80;99.90
18207;DHT22;9229;52.354;20.886;2022-11-09T16:50:01;10.80;99.90
18207;DHT22;9229;52.354;20.886;2022-11-09T16:55:22;10.80;99.90
18207;DHT22;9229;52.354;20.886;2022-11-09T17:00:43;10.80;99.90
18207;DHT22;9229;52.354;20.886;2022-11-09T17:06:06;10.70;99.90
18207;DHT22;9229;52.354;20.886;2022-11-09T17:11:29;10.60;99.90
18207;DHT22;9229;52.354;20.886;2022-11-09T17:16:50;10.50;99.90
18207;DHT22;9229;52.354;20.886;2022-11-09T17:22:12;10.50;99.90
18207;DHT22;9229;52.354;20.886;2022-11-09T17:27:32;10.40;99.90
18207;DHT22;9229;52.354;20.886;2022-11-09T17:32:55;10.40;99.90
18207;DHT22;9229;52.354;20.886;2022-11-09T17:38:17;10.30;99.90
18207;DHT22;9229;52.354;20.886;2022-11-09T17:43:41;10.40;99.90
18207;DHT22;9229;52.354;20.886;2022-11-09T17:49:03;10.30;99.90
18207;DHT22;9229;52.354;20.886;2022-11-09T17:54:25;10.30;99.90
18207;DHT22;9229;52.354;20.886;2022-11-09T17:59:47;10.30;99.90
18207;DHT22;9229;52.354;20.886;2022-11-09T18:05:08;10.30;99.90
18207;DHT22;9229;52.354;20.886;2022-11-09T18:10:44;10.30;99.90
18207;DHT22;9229;52.354;20.886;2022-11-09T18:16:11;10.20;99.90
18207;DHT22;9229;52.354;20.886;2022-11-09T18:21:32;10.40;99.90
18207;DHT22;9229;52.354;20.886;2022-11-09T18:26:55;10.40;99.90
18207;DHT22;9229;52.354;20.886;2022-11-09T18:32:15;10.40;99.90
18207;DHT22;9229;52.354;20.886;2022-11-09T18:37:36;10.50;99.90
18207;DHT22;9229;52.354;20.886;2022-11-09T18:42:59;10.50;99.90
18207;DHT22;9229;52.354;20.886;2022-11-09T18:48:19;10.40;99.90
18207;DHT22;9229;52.354;20.886;2022-11-09T18:53:42;10.40;99.90
18207;DHT22;9229;52.354;20.886;2022-11-09T18:59:04;10.40;99.90
18207;DHT22;9229;52.354;20.886;2022-11-09T19:04:25;10.40;99.90
18207;DHT22;9229;52.354;20.886;2022-11-09T19:09:46;10.40;99.90
18207;DHT22;9229;52.354;20.886;2022-11-09T19:15:08;10.40;99.90
18207;DHT22;9229;52.354;20.886;2022-11-09T19:20:37;10.40;99.90
18207;DHT22;9229;52.354;20.886;2022-11-09T19:26:00;10.30;99.90
18207;DHT22;9229;52.354;20.886;2022-11-09T19:31:23;10.20;99.90
18207;DHT22;9229;52.354;20.886;2022-11-09T19:36:44;10.20;99.90
18207;DHT22;9229;52.354;20.886;2022-11-09T19:42:05;10.10;99.90
18207;DHT22;9229;52.354;20.886;2022-11-09T19:47:28;10.10;99.90
18207;DHT22;9229;52.354;20.886;2022-11-09T19:52:49;10.00;99.90
18207;DHT22;9229;52.354;20.886;2022-11-09T19:58:10;10.00;99.90
18207;DHT22;9229;52.354;20.886;2022-11-09T20:03:33;10.00;99.90
18207;DHT22;9229;52.354;20.886;2022-11-09T20:08:54;10.00;99.90
18207;DHT22;9229;52.354;20.886;2022-11-09T20:14:16;10.00;99.90
18207;DHT22;9229;52.354;20.886;2022-11-09T20:19:38;10.00;99.90
18207;DHT22;9229;52.354;20.886;2022-11-09T20:24:59;9.90;99.90
18207;DHT22;9229;52.354;20.886;2022-11-09T20:30:20;9.80;99.90
18207;DHT22;9229;52.354;20.886;2022-11-09T20:35:50;9.70;99.90
18207;DHT22;9229;52.354;20.886;2022-11-09T20:41:11;9.60;99.90
18207;DHT22;9229;52.354;20.886;2022-11-09T20:47:21;9.50;99.90
18207;DHT22;9229;52.354;20.886;2022-11-09T20:53:00;9.40;99.90
18207;DHT22;9229;52.354;20.886;2022-11-09T20:58:22;9.30;99.90
18207;DHT22;9229;52.354;20.886;2022-11-09T21:03:46;9.20;99.90
18207;DHT22;9229;52.354;20.886;2022-11-09T21:09:08;9.10;99.90
18207;DHT22;9229;52.354;20.886;2022-11-09T21:14:29;9.00;99.90
18207;DHT22;9229;52.354;20.886;2022-11-09T21:19:50;8.90;99.90
18207;DHT22;9229;52.354;20.886;2022-11-09T21:25:12;8.70;99.90
18207;DHT22;9229;52.354;20.886;2022-11-09T21:30:51;8.60;99.90
18207;DHT22;9229;52.354;20.886;2022-11-09T21:36:14;8.60;99.90
18207;DHT22;9229;52.354;20.886;2022-11-09T21:41:37;8.50;99.90
18207;DHT22;9229;52.354;20.886;2022-11-09T21:46:57;8.40;99.90
18207;DHT22;9229;52.354;20.886;2022-11-09T21:52:18;8.30;99.90
18207;DHT22;9229;52.354;20.886;2022-11-09T21:57:42;8.30;99.90
18207;DHT22;9229;52.354;20.886;2022-11-09T22:03:04;8.20;99.90
18207;DHT22;9229;52.354;20.886;2022-11-09T22:08:25;8.10;99.90
18207;DHT22;9229;52.354;20.886;2022-11-09T22:13:47;8.00;99.90
18207;DHT22;9229;52.354;20.886;2022-11-09T22:19:25;7.90;99.90
18207;DHT22;9229;52.354;20.886;2022-11-09T22:25:18;7.80;99.90
18207;DHT22;9229;52.354;20.886;2022-11-09T22:30:40;7.70;99.90
18207;DHT22;9229;52.354;20.886;2022-11-09T22:36:02;7.70;99.90
18207;DHT22;9229;52.354;20.886;2022-11-09T22:41:23;7.70;99.90
18207;DHT22;9229;52.354;20.886;2022-11-09T22:46:46;7.80;99.90
18207;DHT22;9229;52.354;20.886;2022-11-09T22:52:07;7.80;99.90
18207;DHT22;9229;52.354;20.886;2022-11-09T22:57:28;7.80;99.90
18207;DHT22;9229;52.354;20.886;2022-11-09T23:02:55;7.90;99.90
18207;DHT22;9229;52.354;20.886;2022-11-09T23:08:15;7.90;99.90
18207;DHT22;9229;52.354;20.886;2022-11-09T23:13:36;8.00;99.90
18207;DHT22;9229;52.354;20.886;2022-11-09T23:18:59;8.00;99.90
18207;DHT22;9229;52.354;20.886;2022-11-09T23:24:19;8.00;99.90
18207;DHT22;9229;52.354;20.886;2022-11-09T23:29:54;8.00;99.90
18207;DHT22;9229;52.354;20.886;2022-11-09T23:35:16;8.00;99.90
18207;DHT22;9229;52.354;20.886;2022-11-09T23:40:37;8.00;99.90
18207;DHT22;9229;52.354;20.886;2022-11-09T23:46:03;7.90;99.90
18207;DHT22;9229;52.354;20.886;2022-11-09T23:51:25;7.90;99.90
18207;DHT22;9229;52.354;20.886;2022-11-09T23:56:46;7.90;99.90
